sensor_id;sensor_type;location;lat;lon;timestamp;temperature;humidity
5508;DHT22;2776;51.046;6.772;2022-11-15T00:02:00;10.50;99.90
5508;DHT22;2776;51.046;6.772;2022-11-15T00:04:29;10.50;99.90
5508;DHT22;2776;51.046;6.772;2022-11-15T00:06:56;10.60;99.90
5508;DHT22;2776;51.046;6.772;2022-11-15T00:09:24;10.60;99.90
5508;DHT22;2776;51.046;6.772;2022-11-15T00:11:51;10.60;99.90
5508;DHT22;2776;51.046;6.772;2022-11-15T00:14:18;10.60;99.90
5508;DHT22;2776;51.046;6.772;2022-11-15T00:16:45;10.70;99.90
5508;DHT22;2776;51.046;6.772;2022-11-15T00:19:11;10.60;99.90
5508;DHT22;2776;51.046;6.772;2022-11-15T00:21:39;10.70;99.90
5508;DHT22;2776;51.046;6.772;2022-11-15T00:24:06;10.70;99.90
5508;DHT22;2776;51.046;6.772;2022-11-15T00:26:34;10.80;99.90
5508;DHT22;2776;51.046;6.772;2022-11-15T00:29:01;10.90;99.90
5508;DHT22;2776;51.046;6.772;2022-11-15T00:31:27;10.90;99.90
5508;DHT22;2776;51.046;6.772;2022-11-15T00:33:54;10.90;99.90
5508;DHT22;2776;51.046;6.772;2022-11-15T00:36:21;11.00;99.90
5508;DHT22;2776;51.046;6.772;2022-11-15T00:38:47;11.00;99.90
5508;DHT22;2776;51.046;6.772;2022-11-15T00:41:14;11.00;99.90
5508;DHT22;2776;51.046;6.772;2022-11-15T00:43:42;11.00;99.90
5508;DHT22;2776;51.046;6.772;2022-11-15T00:46:09;10.90;99.90
5508;DHT22;2776;51.046;6.772;2022-11-15T00:48:36;10.90;99.90
5508;DHT22;2776;51.046;6.772;2022-11-15T00:51:03;11.00;99.90
5508;DHT22;2776;51.046;6.772;2022-11-15T00:53:30;11.00;99.90
5508;DHT22;2776;51.046;6.772;2022-11-15T00:55:57;11.00;99.90
5508;DHT22;2776;51.046;6.772;2022-11-15T00:58:23;11.00;99.90
5508;DHT22;2776;51.046;6.772;2022-11-15T01:00:51;11.10;99.90
5508;DHT22;2776;51.046;6.772;2022-11-15T01:03:18;11.10;99.90
5508;DHT22;2776;51.046;6.772;2022-11-15T01:05:45;11.10;99.90
5508;DHT22;2776;51.046;6.772;2022-11-15T01:08:13;11.20;99.90
5508;DHT22;2776;51.046;6.772;2022-11-15T01:10:40;11.20;99.90
5508;DHT22;2776;51.046;6.772;2022-11-15T01:13:07;11.20;99.90
5508;DHT22;2776;51.046;6.772;2022-11-15T01:15:34;11.20;99.90
5508;DHT22;2776;51.046;6.772;2022-11-15T01:18:02;11.20;99.90
5508;DHT22;2776;51.046;6.772;2022-11-15T01:20:29;11.30;99.90
5508;DHT22;2776;51.046;6.772;2022-11-15T01:22:55;11.30;99.90
5508;DHT22;2776;51.046;6.772;2022-11-15T01:25:22;11.30;99.90
5508;DHT22;2776;51.046;6.772;2022-11-15T01:27:49;11.30;99.90
5508;DHT22;2776;51.046;6.772;2022-11-15T01:30:16;11.40;99.90
5508;DHT22;2776;51.046;6.772;2022-11-15T01:32:42;11.40;99.90
5508;DHT22;2776;51.046;6.772;2022-11-15T01:35:10;11.50;99.90
5508;DHT22;2776;51.046;6.772;2022-11-15T01:37:37;11.40;99.90
5508;DHT22;2776;51.046;6.772;2022-11-15T01:40:05;11.40;99.90
5508;DHT22;2776;51.046;6.772;2022-11-15T01:42:32;11.50;99.90
5508;DHT22;2776;51.046;6.772;2022-11-15T01:44:58;11.50;99.90
5508;DHT22;2776;51.046;6.772;2022-11-15T01:47:28;11.50;99.90
5508;DHT22;2776;51.046;6.772;2022-11-15T01:49:59;11.50;99.90
5508;DHT22;2776;51.046;6.772;2022-11-15T01:52:30;11.50;99.90
5508;DHT22;2776;51.046;6.772;2022-11-15T01:55:02;11.50;99.90
5508;DHT22;2776;51.046;6.772;2022-11-15T01:57:30;11.50;99.90
5508;DHT22;2776;51.046;6.772;2022-11-15T01:59:57;11.50;99.90
5508;DHT22;2776;51.046;6.772;2022-11-15T02:02:25;11.50;99.90
5508;DHT22;2776;51.046;6.772;2022-11-15T02:04:52;11.60;99.90
5508;DHT22;2776;51.046;6.772;2022-11-15T02:07:20;11.60;99.90
5508;DHT22;2776;51.046;6.772;2022-11-15T02:09:50;11.60;99.90
5508;DHT22;2776;51.046;6.772;2022-11-15T02:12:19;11.60;99.90
5508;DHT22;2776;51.046;6.772;2022-11-15T02:14:48;11.60;99.90
5508;DHT22;2776;51.046;6.772;2022-11-15T02:17:29;11.70;99.90
5508;DHT22;2776;51.046;6.772;2022-11-15T02:20:14;11.70;99.90
5508;DHT22;2776;51.046;6.772;2022-11-15T02:22:57;11.70;99.90
5508;DHT22;2776;51.046;6.772;2022-11-15T02:25:38;11.70;99.90
5508;DHT22;2776;51.046;6.772;2022-11-15T02:31:17;11.80;99.90
5508;DHT22;2776;51.046;6.772;2022-11-15T02:33:54;11.90;99.90
5508;DHT22;2776;51.046;6.772;2022-11-15T02:36:31;11.90;99.90
5508;DHT22;2776;51.046;6.772;2022-11-15T02:39:03;11.90;99.90
5508;DHT22;2776;51.046;6.772;2022-11-15T02:41:38;12.00;99.90
5508;DHT22;2776;51.046;6.772;2022-11-15T02:44:12;12.00;99.90
5508;DHT22;2776;51.046;6.772;2022-11-15T02:46:43;12.00;99.90
5508;DHT22;2776;51.046;6.772;2022-11-15T02:49:32;12.00;99.90
5508;DHT22;2776;51.046;6.772;2022-11-15T02:51:59;12.00;99.90
5508;DHT22;2776;51.046;6.772;2022-11-15T02:54:28;12.10;99.90
5508;DHT22;2776;51.046;6.772;2022-11-15T02:56:59;12.10;99.90
5508;DHT22;2776;51.046;6.772;2022-11-15T02:59:44;12.20;99.90
5508;DHT22;2776;51.046;6.772;2022-11-15T03:02:22;12.20;99.90
5508;DHT22;2776;51.046;6.772;2022-11-15T03:04:54;12.20;99.90
5508;DHT22;2776;51.046;6.772;2022-11-15T03:07:26;12.20;99.90
5508;DHT22;2776;51.046;6.772;2022-11-15T03:10:01;12.10;99.90
5508;DHT22;2776;51.046;6.772;2022-11-15T03:12:33;12.10;99.90
5508;DHT22;2776;51.046;6.772;2022-11-15T03:15:06;12.20;99.90
5508;DHT22;2776;51.046;6.772;2022-11-15T03:17:38;12.20;99.90
5508;DHT22;2776;51.046;6.772;2022-11-15T03:20:08;12.20;99.90
5508;DHT22;2776;51.046;6.772;2022-11-15T03:22:39;12.10;99.90
5508;DHT22;2776;51.046;6.772;2022-11-15T03:25:10;12.20;99.90
5508;DHT22;2776;51.046;6.772;2022-11-15T03:27:42;12.20;99.90
5508;DHT22;2776;51.046;6.772;2022-11-15T03:30:11;12.30;99.90
5508;DHT22;2776;51.046;6.772;2022-11-15T03:32:45;12.20;99.90
5508;DHT22;2776;51.046;6.772;2022-11-15T03:35:15;12.30;99.90
5508;DHT22;2776;51.046;6.772;2022-11-15T03:37:48;12.30;99.90
5508;DHT22;2776;51.046;6.772;2022-11-15T03:40:17;12.30;99.90
5508;DHT22;2776;51.046;6.772;2022-11-15T03:42:48;12.30;99.90
5508;DHT22;2776;51.046;6.772;2022-11-15T03:45:22;12.30;99.90
5508;DHT22;2776;51.046;6.772;2022-11-15T03:47:57;12.30;99.90
5508;DHT22;2776;51.046;6.772;2022-11-15T03:50:25;12.30;99.90
5508;DHT22;2776;51.046;6.772;2022-11-15T03:52:54;12.20;99.90
5508;DHT22;2776;51.046;6.772;2022-11-15T03:55:21;12.30;99.90
5508;DHT22;2776;51.046;6.772;2022-11-15T03:57:52;12.30;99.90
5508;DHT22;2776;51.046;6.772;2022-11-15T04:00:20;12.20;99.90
5508;DHT22;2776;51.046;6.772;2022-11-15T04:02:46;12.20;99.90
5508;DHT22;2776;51.046;6.772;2022-11-15T04:05:15;12.20;99.90
5508;DHT22;2776;51.046;6.772;2022-11-15T04:07:41;12.10;99.90
5508;DHT22;2776;51.046;6.772;2022-11-15T04:10:10;12.20;99.90
5508;DHT22;2776;51.046;6.772;2022-11-15T04:12:40;12.20;99.90
5508;DHT22;2776;51.046;6.772;2022-11-15T04:15:10;12.20;99.90
5508;DHT22;2776;51.046;6.772;2022-11-15T04:17:40;12.20;99.90
5508;DHT22;2776;51.046;6.772;2022-11-15T04:20:09;12.20;99.90
5508;DHT22;2776;51.046;6.772;2022-11-15T04:22:55;12.20;99.90
5508;DHT22;2776;51.046;6.772;2022-11-15T04:25:40;12.20;99.90
5508;DHT22;2776;51.046;6.772;2022-11-15T04:28:07;12.20;99.90
5508;DHT22;2776;51.046;6.772;2022-11-15T04:30:34;12.20;99.90
5508;DHT22;2776;51.046;6.772;2022-11-15T04:33:01;12.20;99.90
5508;DHT22;2776;51.046;6.772;2022-11-15T04:35:27;12.20;99.90
5508;DHT22;2776;51.046;6.772;2022-11-15T04:37:56;12.20;99.90
5508;DHT22;2776;51.046;6.772;2022-11-15T04:40:22;12.20;99.90
5508;DHT22;2776;51.046;6.772;2022-11-15T04:42:49;12.20;99.90
5508;DHT22;2776;51.046;6.772;2022-11-15T04:45:16;12.20;99.90
5508;DHT22;2776;51.046;6.772;2022-11-15T04:47:43;12.20;99.90
5508;DHT22;2776;51.046;6.772;2022-11-15T04:50:10;12.20;99.90
5508;DHT22;2776;51.046;6.772;2022-11-15T04:52:39;12.20;99.90
5508;DHT22;2776;51.046;6.772;2022-11-15T04:55:08;12.20;99.90
5508;DHT22;2776;51.046;6.772;2022-11-15T04:57:34;12.20;99.90
5508;DHT22;2776;51.046;6.772;2022-11-15T05:00:02;12.20;99.90
5508;DHT22;2776;51.046;6.772;2022-11-15T05:02:29;12.20;99.90
5508;DHT22;2776;51.046;6.772;2022-11-15T05:05:16;12.10;99.90
5508;DHT22;2776;51.046;6.772;2022-11-15T05:07:42;12.10;99.90
5508;DHT22;2776;51.046;6.772;2022-11-15T05:10:10;12.10;99.90
5508;DHT22;2776;51.046;6.772;2022-11-15T05:12:37;12.10;99.90
5508;DHT22;2776;51.046;6.772;2022-11-15T05:15:05;12.10;99.90
5508;DHT22;2776;51.046;6.772;2022-11-15T05:17:32;12.20;99.90
5508;DHT22;2776;51.046;6.772;2022-11-15T05:19:58;12.20;99.90
5508;DHT22;2776;51.046;6.772;2022-11-15T05:22:25;12.20;99.90
5508;DHT22;2776;51.046;6.772;2022-11-15T05:24:52;12.20;99.90
5508;DHT22;2776;51.046;6.772;2022-11-15T05:27:20;12.30;99.90
5508;DHT22;2776;51.046;6.772;2022-11-15T05:29:46;12.20;99.90
5508;DHT22;2776;51.046;6.772;2022-11-15T05:32:13;12.20;99.90
5508;DHT22;2776;51.046;6.772;2022-11-15T05:34:40;12.20;99.90
5508;DHT22;2776;51.046;6.772;2022-11-15T05:37:07;12.20;99.90
5508;DHT22;2776;51.046;6.772;2022-11-15T05:39:34;12.20;99.90
5508;DHT22;2776;51.046;6.772;2022-11-15T05:42:04;12.30;99.90
5508;DHT22;2776;51.046;6.772;2022-11-15T05:44:34;12.30;99.90
5508;DHT22;2776;51.046;6.772;2022-11-15T05:47:03;12.30;99.90
5508;DHT22;2776;51.046;6.772;2022-11-15T05:49:31;12.30;99.90
5508;DHT22;2776;51.046;6.772;2022-11-15T05:52:03;12.30;99.90
5508;DHT22;2776;51.046;6.772;2022-11-15T05:54:32;12.30;99.90
5508;DHT22;2776;51.046;6.772;2022-11-15T05:56:59;12.20;99.90
5508;DHT22;2776;51.046;6.772;2022-11-15T05:59:28;12.30;99.90
5508;DHT22;2776;51.046;6.772;2022-11-15T06:01:57;12.20;99.90
5508;DHT22;2776;51.046;6.772;2022-11-15T06:04:24;12.20;99.90
5508;DHT22;2776;51.046;6.772;2022-11-15T06:06:51;12.20;99.90
5508;DHT22;2776;51.046;6.772;2022-11-15T06:09:17;12.20;99.90
5508;DHT22;2776;51.046;6.772;2022-11-15T06:11:44;12.30;99.90
5508;DHT22;2776;51.046;6.772;2022-11-15T06:14:11;12.20;99.90
5508;DHT22;2776;51.046;6.772;2022-11-15T06:16:38;12.20;99.90
5508;DHT22;2776;51.046;6.772;2022-11-15T06:19:07;12.20;99.90
5508;DHT22;2776;51.046;6.772;2022-11-15T06:21:33;12.20;99.90
5508;DHT22;2776;51.046;6.772;2022-11-15T06:24:00;12.10;99.90
5508;DHT22;2776;51.046;6.772;2022-11-15T06:26:27;12.10;99.90
5508;DHT22;2776;51.046;6.772;2022-11-15T06:28:54;12.00;99.90
5508;DHT22;2776;51.046;6.772;2022-11-15T06:31:20;12.00;99.90
5508;DHT22;2776;51.046;6.772;2022-11-15T06:33:47;12.00;99.90
5508;DHT22;2776;51.046;6.772;2022-11-15T06:36:16;11.90;99.90
5508;DHT22;2776;51.046;6.772;2022-11-15T06:38:44;11.80;99.90
5508;DHT22;2776;51.046;6.772;2022-11-15T06:41:11;11.70;99.90
5508;DHT22;2776;51.046;6.772;2022-11-15T06:43:39;11.70;99.90
5508;DHT22;2776;51.046;6.772;2022-11-15T06:46:06;11.70;99.90
5508;DHT22;2776;51.046;6.772;2022-11-15T06:48:33;11.70;99.90
5508;DHT22;2776;51.046;6.772;2022-11-15T06:51:03;11.60;99.90
5508;DHT22;2776;51.046;6.772;2022-11-15T06:53:31;11.60;99.90
5508;DHT22;2776;51.046;6.772;2022-11-15T06:55:59;11.70;99.90
5508;DHT22;2776;51.046;6.772;2022-11-15T06:58:27;11.80;99.90
5508;DHT22;2776;51.046;6.772;2022-11-15T07:00:57;11.70;99.90
5508;DHT22;2776;51.046;6.772;2022-11-15T07:03:24;11.70;99.90
5508;DHT22;2776;51.046;6.772;2022-11-15T07:05:52;11.70;99.90
5508;DHT22;2776;51.046;6.772;2022-11-15T07:08:19;11.70;99.90
5508;DHT22;2776;51.046;6.772;2022-11-15T07:10:48;11.60;99.90
5508;DHT22;2776;51.046;6.772;2022-11-15T07:13:14;11.70;99.90
5508;DHT22;2776;51.046;6.772;2022-11-15T07:15:41;11.70;99.90
5508;DHT22;2776;51.046;6.772;2022-11-15T07:18:08;11.70;99.90
5508;DHT22;2776;51.046;6.772;2022-11-15T07:20:35;11.60;99.90
5508;DHT22;2776;51.046;6.772;2022-11-15T07:23:02;11.70;99.90
5508;DHT22;2776;51.046;6.772;2022-11-15T07:25:29;11.70;99.90
5508;DHT22;2776;51.046;6.772;2022-11-15T07:27:58;11.70;99.90
5508;DHT22;2776;51.046;6.772;2022-11-15T07:30:26;11.70;99.90
5508;DHT22;2776;51.046;6.772;2022-11-15T07:32:53;11.70;99.90
5508;DHT22;2776;51.046;6.772;2022-11-15T07:35:20;11.80;99.90
5508;DHT22;2776;51.046;6.772;2022-11-15T07:37:53;11.80;99.90
5508;DHT22;2776;51.046;6.772;2022-11-15T07:40:20;11.80;99.90
5508;DHT22;2776;51.046;6.772;2022-11-15T07:42:47;11.90;99.90
5508;DHT22;2776;51.046;6.772;2022-11-15T07:45:23;11.90;99.90
5508;DHT22;2776;51.046;6.772;2022-11-15T07:47:51;11.90;99.90
5508;DHT22;2776;51.046;6.772;2022-11-15T07:50:18;11.90;99.90
5508;DHT22;2776;51.046;6.772;2022-11-15T07:52:45;12.00;99.90
5508;DHT22;2776;51.046;6.772;2022-11-15T07:55:12;11.90;99.90
5508;DHT22;2776;51.046;6.772;2022-11-15T07:57:39;11.90;99.90
5508;DHT22;2776;51.046;6.772;2022-11-15T08:00:07;11.90;99.90
5508;DHT22;2776;51.046;6.772;2022-11-15T08:02:35;11.80;99.90
5508;DHT22;2776;51.046;6.772;2022-11-15T08:05:02;11.80;99.90
5508;DHT22;2776;51.046;6.772;2022-11-15T08:07:30;11.80;99.90
5508;DHT22;2776;51.046;6.772;2022-11-15T08:09:57;11.70;99.90
5508;DHT22;2776;51.046;6.772;2022-11-15T08:12:24;11.70;99.90
5508;DHT22;2776;51.046;6.772;2022-11-15T08:14:50;11.70;99.90
5508;DHT22;2776;51.046;6.772;2022-11-15T08:17:17;11.70;99.90
5508;DHT22;2776;51.046;6.772;2022-11-15T08:19:45;11.70;99.90
5508;DHT22;2776;51.046;6.772;2022-11-15T08:22:12;11.70;99.90
5508;DHT22;2776;51.046;6.772;2022-11-15T08:24:39;11.70;99.90
5508;DHT22;2776;51.046;6.772;2022-11-15T08:27:06;11.70;99.90
5508;DHT22;2776;51.046;6.772;2022-11-15T08:29:40;11.80;99.90
5508;DHT22;2776;51.046;6.772;2022-11-15T08:32:07;11.80;99.90
5508;DHT22;2776;51.046;6.772;2022-11-15T08:34:34;11.80;99.90
5508;DHT22;2776;51.046;6.772;2022-11-15T08:37:02;11.80;99.90
5508;DHT22;2776;51.046;6.772;2022-11-15T08:39:28;11.90;99.90
5508;DHT22;2776;51.046;6.772;2022-11-15T08:41:55;11.90;99.90
5508;DHT22;2776;51.046;6.772;2022-11-15T08:44:22;12.00;99.90
5508;DHT22;2776;51.046;6.772;2022-11-15T08:46:50;12.10;99.90
5508;DHT22;2776;51.046;6.772;2022-11-15T08:49:17;12.10;99.90
5508;DHT22;2776;51.046;6.772;2022-11-15T08:51:44;12.20;99.90
5508;DHT22;2776;51.046;6.772;2022-11-15T08:54:12;12.20;99.90
5508;DHT22;2776;51.046;6.772;2022-11-15T08:56:39;12.20;99.90
5508;DHT22;2776;51.046;6.772;2022-11-15T08:59:06;12.30;99.90
5508;DHT22;2776;51.046;6.772;2022-11-15T09:01:33;12.30;99.90
5508;DHT22;2776;51.046;6.772;2022-11-15T09:04:00;12.30;99.90
5508;DHT22;2776;51.046;6.772;2022-11-15T09:06:26;12.30;99.90
5508;DHT22;2776;51.046;6.772;2022-11-15T09:08:53;12.40;99.90
5508;DHT22;2776;51.046;6.772;2022-11-15T09:11:21;12.50;99.90
5508;DHT22;2776;51.046;6.772;2022-11-15T09:13:48;12.60;99.90
5508;DHT22;2776;51.046;6.772;2022-11-15T09:16:15;12.60;99.90
5508;DHT22;2776;51.046;6.772;2022-11-15T09:18:42;12.70;99.90
5508;DHT22;2776;51.046;6.772;2022-11-15T09:21:09;12.80;99.90
5508;DHT22;2776;51.046;6.772;2022-11-15T09:23:36;12.90;99.90
5508;DHT22;2776;51.046;6.772;2022-11-15T09:26:04;12.90;99.90
5508;DHT22;2776;51.046;6.772;2022-11-15T09:28:33;12.90;99.90
5508;DHT22;2776;51.046;6.772;2022-11-15T09:31:02;12.90;99.90
5508;DHT22;2776;51.046;6.772;2022-11-15T09:33:29;13.00;99.90
5508;DHT22;2776;51.046;6.772;2022-11-15T09:35:59;13.10;99.90
5508;DHT22;2776;51.046;6.772;2022-11-15T09:38:26;13.10;99.90
5508;DHT22;2776;51.046;6.772;2022-11-15T09:41:05;13.30;99.90
5508;DHT22;2776;51.046;6.772;2022-11-15T09:43:42;13.30;99.90
5508;DHT22;2776;51.046;6.772;2022-11-15T09:46:15;13.40;99.90
5508;DHT22;2776;51.046;6.772;2022-11-15T09:48:49;13.30;99.90
5508;DHT22;2776;51.046;6.772;2022-11-15T09:51:24;13.30;99.90
5508;DHT22;2776;51.046;6.772;2022-11-15T09:53:57;13.20;99.90
5508;DHT22;2776;51.046;6.772;2022-11-15T09:56:27;13.10;99.90
5508;DHT22;2776;51.046;6.772;2022-11-15T09:59:05;13.10;99.90
5508;DHT22;2776;51.046;6.772;2022-11-15T10:01:44;13.20;99.90
5508;DHT22;2776;51.046;6.772;2022-11-15T10:04:14;13.30;99.90
5508;DHT22;2776;51.046;6.772;2022-11-15T10:06:46;13.40;99.90
5508;DHT22;2776;51.046;6.772;2022-11-15T10:09:21;13.40;99.90
5508;DHT22;2776;51.046;6.772;2022-11-15T10:11:50;13.50;99.90
5508;DHT22;2776;51.046;6.772;2022-11-15T10:14:20;13.50;99.90
5508;DHT22;2776;51.046;6.772;2022-11-15T10:19:54;13.40;99.90
5508;DHT22;2776;51.046;6.772;2022-11-15T10:22:27;13.40;99.90
5508;DHT22;2776;51.046;6.772;2022-11-15T10:25:09;13.50;99.90
5508;DHT22;2776;51.046;6.772;2022-11-15T10:27:39;13.50;99.90
5508;DHT22;2776;51.046;6.772;2022-11-15T10:30:11;13.60;99.90
5508;DHT22;2776;51.046;6.772;2022-11-15T10:32:39;13.60;99.90
5508;DHT22;2776;51.046;6.772;2022-11-15T10:35:17;13.70;99.90
5508;DHT22;2776;51.046;6.772;2022-11-15T10:37:44;13.70;99.90
5508;DHT22;2776;51.046;6.772;2022-11-15T10:40:17;13.50;99.90
5508;DHT22;2776;51.046;6.772;2022-11-15T10:42:44;13.50;99.90
5508;DHT22;2776;51.046;6.772;2022-11-15T10:45:28;13.50;99.90
5508;DHT22;2776;51.046;6.772;2022-11-15T10:48:24;13.60;99.90
5508;DHT22;2776;51.046;6.772;2022-11-15T10:50:52;13.70;99.90
5508;DHT22;2776;51.046;6.772;2022-11-15T10:53:27;13.70;99.90
5508;DHT22;2776;51.046;6.772;2022-11-15T10:55:59;13.70;99.90
5508;DHT22;2776;51.046;6.772;2022-11-15T10:58:33;13.70;99.90
5508;DHT22;2776;51.046;6.772;2022-11-15T11:01:14;13.70;99.90
5508;DHT22;2776;51.046;6.772;2022-11-15T11:03:42;13.80;99.90
5508;DHT22;2776;51.046;6.772;2022-11-15T11:06:12;13.80;99.90
5508;DHT22;2776;51.046;6.772;2022-11-15T11:08:40;13.80;99.90
5508;DHT22;2776;51.046;6.772;2022-11-15T11:11:14;13.90;99.90
5508;DHT22;2776;51.046;6.772;2022-11-15T11:13:40;13.90;99.90
5508;DHT22;2776;51.046;6.772;2022-11-15T11:19:16;14.00;99.90
5508;DHT22;2776;51.046;6.772;2022-11-15T11:21:51;14.10;99.90
5508;DHT22;2776;51.046;6.772;2022-11-15T11:24:29;14.10;99.90
5508;DHT22;2776;51.046;6.772;2022-11-15T11:27:08;14.00;99.90
5508;DHT22;2776;51.046;6.772;2022-11-15T11:29:48;14.00;99.90
5508;DHT22;2776;51.046;6.772;2022-11-15T11:32:34;13.90;99.90
5508;DHT22;2776;51.046;6.772;2022-11-15T11:35:08;13.80;99.90
5508;DHT22;2776;51.046;6.772;2022-11-15T11:37:45;13.90;99.90
5508;DHT22;2776;51.046;6.772;2022-11-15T11:40:28;13.90;99.90
5508;DHT22;2776;51.046;6.772;2022-11-15T11:43:01;13.90;99.90
5508;DHT22;2776;51.046;6.772;2022-11-15T11:45:58;14.00;99.90
5508;DHT22;2776;51.046;6.772;2022-11-15T11:48:40;14.00;99.90
5508;DHT22;2776;51.046;6.772;2022-11-15T11:51:13;14.10;99.90
5508;DHT22;2776;51.046;6.772;2022-11-15T11:53:42;14.20;99.90
5508;DHT22;2776;51.046;6.772;2022-11-15T11:56:17;14.30;99.90
5508;DHT22;2776;51.046;6.772;2022-11-15T11:58:46;14.40;99.90
5508;DHT22;2776;51.046;6.772;2022-11-15T12:01:20;14.50;99.90
5508;DHT22;2776;51.046;6.772;2022-11-15T12:03:55;14.50;99.90
5508;DHT22;2776;51.046;6.772;2022-11-15T12:06:30;14.60;99.90
5508;DHT22;2776;51.046;6.772;2022-11-15T12:09:00;14.60;99.90
5508;DHT22;2776;51.046;6.772;2022-11-15T12:11:30;14.60;99.90
5508;DHT22;2776;51.046;6.772;2022-11-15T12:14:01;14.60;99.90
5508;DHT22;2776;51.046;6.772;2022-11-15T12:16:31;14.60;99.90
5508;DHT22;2776;51.046;6.772;2022-11-15T12:19:01;14.60;99.90
5508;DHT22;2776;51.046;6.772;2022-11-15T12:21:35;14.70;99.90
5508;DHT22;2776;51.046;6.772;2022-11-15T12:24:06;14.80;99.90
5508;DHT22;2776;51.046;6.772;2022-11-15T12:26:37;14.80;99.90
5508;DHT22;2776;51.046;6.772;2022-11-15T12:29:11;14.80;99.90
5508;DHT22;2776;51.046;6.772;2022-11-15T12:31:40;14.70;99.90
5508;DHT22;2776;51.046;6.772;2022-11-15T12:34:34;14.70;99.90
5508;DHT22;2776;51.046;6.772;2022-11-15T12:40:35;14.60;99.90
5508;DHT22;2776;51.046;6.772;2022-11-15T12:43:35;14.70;99.90
5508;DHT22;2776;51.046;6.772;2022-11-15T12:46:05;14.80;99.90
5508;DHT22;2776;51.046;6.772;2022-11-15T12:48:58;14.90;99.90
5508;DHT22;2776;51.046;6.772;2022-11-15T12:55:00;14.90;99.90
5508;DHT22;2776;51.046;6.772;2022-11-15T12:57:40;15.00;99.90
5508;DHT22;2776;51.046;6.772;2022-11-15T13:03:32;15.00;99.90
5508;DHT22;2776;51.046;6.772;2022-11-15T13:06:02;15.00;99.90
5508;DHT22;2776;51.046;6.772;2022-11-15T13:08:42;14.90;99.90
5508;DHT22;2776;51.046;6.772;2022-11-15T13:11:50;14.80;99.90
5508;DHT22;2776;51.046;6.772;2022-11-15T13:14:41;14.80;99.90
5508;DHT22;2776;51.046;6.772;2022-11-15T13:17:24;14.80;99.90
5508;DHT22;2776;51.046;6.772;2022-11-15T13:19:59;14.70;99.90
5508;DHT22;2776;51.046;6.772;2022-11-15T13:22:27;14.70;99.90
5508;DHT22;2776;51.046;6.772;2022-11-15T13:25:21;14.80;99.90
5508;DHT22;2776;51.046;6.772;2022-11-15T13:27:52;14.90;99.90
5508;DHT22;2776;51.046;6.772;2022-11-15T13:30:22;14.90;99.90
5508;DHT22;2776;51.046;6.772;2022-11-15T13:32:51;15.00;99.90
5508;DHT22;2776;51.046;6.772;2022-11-15T13:35:21;15.00;99.90
5508;DHT22;2776;51.046;6.772;2022-11-15T13:37:48;15.00;99.90
5508;DHT22;2776;51.046;6.772;2022-11-15T13:40:24;14.80;99.90
5508;DHT22;2776;51.046;6.772;2022-11-15T13:42:53;14.80;99.90
5508;DHT22;2776;51.046;6.772;2022-11-15T13:45:21;14.70;99.90
5508;DHT22;2776;51.046;6.772;2022-11-15T13:47:53;14.60;99.90
5508;DHT22;2776;51.046;6.772;2022-11-15T13:50:23;14.60;99.90
5508;DHT22;2776;51.046;6.772;2022-11-15T13:52:52;14.50;99.90
5508;DHT22;2776;51.046;6.772;2022-11-15T13:55:21;14.60;99.90
5508;DHT22;2776;51.046;6.772;2022-11-15T13:57:51;14.50;99.90
5508;DHT22;2776;51.046;6.772;2022-11-15T14:00:30;14.50;99.90
5508;DHT22;2776;51.046;6.772;2022-11-15T14:03:06;14.50;99.90
5508;DHT22;2776;51.046;6.772;2022-11-15T14:05:34;14.60;99.90
5508;DHT22;2776;51.046;6.772;2022-11-15T14:08:04;14.60;99.90
5508;DHT22;2776;51.046;6.772;2022-11-15T14:10:39;14.50;99.90
5508;DHT22;2776;51.046;6.772;2022-11-15T14:13:11;14.50;99.90
5508;DHT22;2776;51.046;6.772;2022-11-15T14:15:54;14.60;99.90
5508;DHT22;2776;51.046;6.772;2022-11-15T14:18:40;14.50;99.90
5508;DHT22;2776;51.046;6.772;2022-11-15T14:21:08;14.50;99.90
5508;DHT22;2776;51.046;6.772;2022-11-15T14:23:35;14.50;99.90
5508;DHT22;2776;51.046;6.772;2022-11-15T14:26:02;14.40;99.90
5508;DHT22;2776;51.046;6.772;2022-11-15T14:28:30;14.40;99.90
5508;DHT22;2776;51.046;6.772;2022-11-15T14:31:00;14.40;99.90
5508;DHT22;2776;51.046;6.772;2022-11-15T14:33:30;14.30;99.90
5508;DHT22;2776;51.046;6.772;2022-11-15T14:35:58;14.30;99.90
5508;DHT22;2776;51.046;6.772;2022-11-15T14:38:25;14.30;99.90
5508;DHT22;2776;51.046;6.772;2022-11-15T14:40:52;14.30;99.90
5508;DHT22;2776;51.046;6.772;2022-11-15T14:43:21;14.20;99.90
5508;DHT22;2776;51.046;6.772;2022-11-15T14:45:48;14.30;99.90
5508;DHT22;2776;51.046;6.772;2022-11-15T14:48:16;14.20;99.90
5508;DHT22;2776;51.046;6.772;2022-11-15T14:50:43;14.20;99.90
5508;DHT22;2776;51.046;6.772;2022-11-15T14:53:12;14.20;99.90
5508;DHT22;2776;51.046;6.772;2022-11-15T14:55:40;14.20;99.90
5508;DHT22;2776;51.046;6.772;2022-11-15T14:58:07;14.20;99.90
5508;DHT22;2776;51.046;6.772;2022-11-15T15:00:35;14.20;99.90
5508;DHT22;2776;51.046;6.772;2022-11-15T15:03:02;14.20;99.90
5508;DHT22;2776;51.046;6.772;2022-11-15T15:05:33;14.20;99.90
5508;DHT22;2776;51.046;6.772;2022-11-15T15:08:00;14.20;99.90
5508;DHT22;2776;51.046;6.772;2022-11-15T15:10:30;14.30;99.90
5508;DHT22;2776;51.046;6.772;2022-11-15T15:12:58;14.20;99.90
5508;DHT22;2776;51.046;6.772;2022-11-15T15:15:27;14.20;99.90
5508;DHT22;2776;51.046;6.772;2022-11-15T15:17:56;14.20;99.90
5508;DHT22;2776;51.046;6.772;2022-11-15T15:20:22;14.20;99.90
5508;DHT22;2776;51.046;6.772;2022-11-15T15:22:50;14.20;99.90
5508;DHT22;2776;51.046;6.772;2022-11-15T15:25:21;14.20;99.90
5508;DHT22;2776;51.046;6.772;2022-11-15T15:27:48;14.20;99.90
5508;DHT22;2776;51.046;6.772;2022-11-15T15:30:15;14.10;99.90
5508;DHT22;2776;51.046;6.772;2022-11-15T15:32:42;14.20;99.90
5508;DHT22;2776;51.046;6.772;2022-11-15T15:35:12;14.10;99.90
5508;DHT22;2776;51.046;6.772;2022-11-15T15:37:39;14.00;99.90
5508;DHT22;2776;51.046;6.772;2022-11-15T15:40:13;14.10;99.90
5508;DHT22;2776;51.046;6.772;2022-11-15T15:42:40;14.10;99.90
5508;DHT22;2776;51.046;6.772;2022-11-15T15:45:07;14.10;99.90
5508;DHT22;2776;51.046;6.772;2022-11-15T15:47:34;14.10;99.90
5508;DHT22;2776;51.046;6.772;2022-11-15T15:50:02;14.10;99.90
5508;DHT22;2776;51.046;6.772;2022-11-15T15:52:28;14.10;99.90
5508;DHT22;2776;51.046;6.772;2022-11-15T15:54:55;14.00;99.90
5508;DHT22;2776;51.046;6.772;2022-11-15T15:57:23;14.10;99.90
5508;DHT22;2776;51.046;6.772;2022-11-15T15:59:50;14.00;99.90
5508;DHT22;2776;51.046;6.772;2022-11-15T16:02:16;14.00;99.90
5508;DHT22;2776;51.046;6.772;2022-11-15T16:04:43;14.00;99.90
5508;DHT22;2776;51.046;6.772;2022-11-15T16:07:16;14.00;99.90
5508;DHT22;2776;51.046;6.772;2022-11-15T16:09:43;14.00;99.90
5508;DHT22;2776;51.046;6.772;2022-11-15T16:12:31;14.10;99.90
5508;DHT22;2776;51.046;6.772;2022-11-15T16:14:58;14.00;99.90
5508;DHT22;2776;51.046;6.772;2022-11-15T16:17:28;14.00;99.90
5508;DHT22;2776;51.046;6.772;2022-11-15T16:19:56;14.10;99.90
5508;DHT22;2776;51.046;6.772;2022-11-15T16:22:23;14.10;99.90
5508;DHT22;2776;51.046;6.772;2022-11-15T16:24:50;14.10;99.90
5508;DHT22;2776;51.046;6.772;2022-11-15T16:27:19;14.00;99.90
5508;DHT22;2776;51.046;6.772;2022-11-15T16:29:48;14.00;99.90
5508;DHT22;2776;51.046;6.772;2022-11-15T16:32:16;14.10;99.90
5508;DHT22;2776;51.046;6.772;2022-11-15T16:34:42;14.10;99.90
5508;DHT22;2776;51.046;6.772;2022-11-15T16:37:21;14.10;99.90
5508;DHT22;2776;51.046;6.772;2022-11-15T16:39:48;14.10;99.90
5508;DHT22;2776;51.046;6.772;2022-11-15T16:42:15;14.00;99.90